sensor_id;sensor_type;location;lat;lon;timestamp;temperature;humidity
42965;DHT22;28604;51.204;22.552;2023-04-24T00:01:48;13.10;64.80
42965;DHT22;28604;51.204;22.552;2023-04-24T00:04:14;13.10;64.90
42965;DHT22;28604;51.204;22.552;2023-04-24T00:06:42;13.00;65.00
42965;DHT22;28604;51.204;22.552;2023-04-24T00:09:09;13.00;65.10
42965;DHT22;28604;51.204;22.552;2023-04-24T00:11:36;13.00;65.00
42965;DHT22;28604;51.204;22.552;2023-04-24T00:14:02;12.90;64.70
42965;DHT22;28604;51.204;22.552;2023-04-24T00:16:28;13.00;64.90
42965;DHT22;28604;51.204;22.552;2023-04-24T00:18:54;13.00;65.10
42965;DHT22;28604;51.204;22.552;2023-04-24T00:21:20;13.00;65.30
42965;DHT22;28604;51.204;22.552;2023-04-24T00:23:47;12.90;65.00
42965;DHT22;28604;51.204;22.552;2023-04-24T00:26:13;12.90;65.20
42965;DHT22;28604;51.204;22.552;2023-04-24T00:28:39;12.90;65.40
42965;DHT22;28604;51.204;22.552;2023-04-24T00:31:05;12.80;65.50
42965;DHT22;28604;51.204;22.552;2023-04-24T00:33:32;12.70;65.80
42965;DHT22;28604;51.204;22.552;2023-04-24T00:35:58;12.70;66.10
42965;DHT22;28604;51.204;22.552;2023-04-24T00:38:23;12.70;66.20
42965;DHT22;28604;51.204;22.552;2023-04-24T00:40:50;12.60;66.60
42965;DHT22;28604;51.204;22.552;2023-04-24T00:43:16;12.60;66.90
42965;DHT22;28604;51.204;22.552;2023-04-24T00:45:43;12.50;67.30
42965;DHT22;28604;51.204;22.552;2023-04-24T00:48:09;12.40;67.20
42965;DHT22;28604;51.204;22.552;2023-04-24T00:50:36;12.40;67.50
42965;DHT22;28604;51.204;22.552;2023-04-24T00:53:02;12.40;67.40
42965;DHT22;28604;51.204;22.552;2023-04-24T00:55:28;12.40;67.00
42965;DHT22;28604;51.204;22.552;2023-04-24T00:57:54;12.30;67.10
42965;DHT22;28604;51.204;22.552;2023-04-24T01:03:09;12.30;67.30
42965;DHT22;28604;51.204;22.552;2023-04-24T01:05:37;12.30;67.30
42965;DHT22;28604;51.204;22.552;2023-04-24T01:08:03;12.30;67.50
42965;DHT22;28604;51.204;22.552;2023-04-24T01:10:29;12.20;67.60
42965;DHT22;28604;51.204;22.552;2023-04-24T01:12:56;12.20;68.00
42965;DHT22;28604;51.204;22.552;2023-04-24T01:15:23;12.20;68.10
42965;DHT22;28604;51.204;22.552;2023-04-24T01:17:49;12.20;67.60
42965;DHT22;28604;51.204;22.552;2023-04-24T01:20:16;12.30;67.40
42965;DHT22;28604;51.204;22.552;2023-04-24T01:22:42;12.20;67.50
42965;DHT22;28604;51.204;22.552;2023-04-24T01:25:08;12.20;67.90
42965;DHT22;28604;51.204;22.552;2023-04-24T01:27:34;12.20;68.00
42965;DHT22;28604;51.204;22.552;2023-04-24T01:30:00;12.10;68.30
42965;DHT22;28604;51.204;22.552;2023-04-24T01:32:29;12.10;68.10
42965;DHT22;28604;51.204;22.552;2023-04-24T01:34:55;12.10;68.40
42965;DHT22;28604;51.204;22.552;2023-04-24T01:37:21;12.10;68.40
42965;DHT22;28604;51.204;22.552;2023-04-24T01:39:49;12.00;68.90
42965;DHT22;28604;51.204;22.552;2023-04-24T01:42:14;11.90;68.80
42965;DHT22;28604;51.204;22.552;2023-04-24T01:44:41;11.90;68.60
42965;DHT22;28604;51.204;22.552;2023-04-24T01:47:07;11.90;69.20
42965;DHT22;28604;51.204;22.552;2023-04-24T01:49:34;11.80;69.40
42965;DHT22;28604;51.204;22.552;2023-04-24T01:57:37;12.00;68.70
42965;DHT22;28604;51.204;22.552;2023-04-24T02:00:04;11.90;68.80
42965;DHT22;28604;51.204;22.552;2023-04-24T02:02:41;11.90;68.80
42965;DHT22;28604;51.204;22.552;2023-04-24T02:05:08;11.90;68.70
42965;DHT22;28604;51.204;22.552;2023-04-24T02:07:36;11.90;67.80
42965;DHT22;28604;51.204;22.552;2023-04-24T02:10:03;11.90;68.20
42965;DHT22;28604;51.204;22.552;2023-04-24T02:12:30;12.00;68.10
42965;DHT22;28604;51.204;22.552;2023-04-24T02:14:56;12.00;68.00
42965;DHT22;28604;51.204;22.552;2023-04-24T02:17:21;12.00;68.00
42965;DHT22;28604;51.204;22.552;2023-04-24T02:19:48;12.00;68.20
42965;DHT22;28604;51.204;22.552;2023-04-24T02:22:14;12.00;68.30
42965;DHT22;28604;51.204;22.552;2023-04-24T02:24:40;12.00;68.30
42965;DHT22;28604;51.204;22.552;2023-04-24T02:27:06;12.00;68.00
42965;DHT22;28604;51.204;22.552;2023-04-24T02:29:32;12.00;67.80
42965;DHT22;28604;51.204;22.552;2023-04-24T02:31:58;12.00;67.50
42965;DHT22;28604;51.204;22.552;2023-04-24T02:34:26;11.90;67.90
42965;DHT22;28604;51.204;22.552;2023-04-24T02:36:52;11.90;68.20
42965;DHT22;28604;51.204;22.552;2023-04-24T02:39:20;11.90;68.90
42965;DHT22;28604;51.204;22.552;2023-04-24T02:41:46;11.80;68.40
42965;DHT22;28604;51.204;22.552;2023-04-24T02:44:12;11.80;68.90
42965;DHT22;28604;51.204;22.552;2023-04-24T02:46:39;11.80;68.40
42965;DHT22;28604;51.204;22.552;2023-04-24T02:49:07;11.70;68.50
42965;DHT22;28604;51.204;22.552;2023-04-24T02:51:32;11.70;68.90
42965;DHT22;28604;51.204;22.552;2023-04-24T02:53:58;11.70;69.00
42965;DHT22;28604;51.204;22.552;2023-04-24T02:56:24;11.60;69.40
42965;DHT22;28604;51.204;22.552;2023-04-24T02:58:51;11.60;69.00
42965;DHT22;28604;51.204;22.552;2023-04-24T03:01:17;11.70;68.60
42965;DHT22;28604;51.204;22.552;2023-04-24T03:03:43;11.70;68.90
42965;DHT22;28604;51.204;22.552;2023-04-24T03:06:09;11.70;68.80
42965;DHT22;28604;51.204;22.552;2023-04-24T03:08:35;11.60;69.00
42965;DHT22;28604;51.204;22.552;2023-04-24T03:11:02;11.70;68.50
42965;DHT22;28604;51.204;22.552;2023-04-24T03:13:28;11.70;68.70
42965;DHT22;28604;51.204;22.552;2023-04-24T03:15:54;11.60;69.50
42965;DHT22;28604;51.204;22.552;2023-04-24T03:18:20;11.60;69.40
42965;DHT22;28604;51.204;22.552;2023-04-24T03:20:48;11.50;70.20
42965;DHT22;28604;51.204;22.552;2023-04-24T03:23:14;11.50;69.70
42965;DHT22;28604;51.204;22.552;2023-04-24T03:25:40;11.50;69.90
42965;DHT22;28604;51.204;22.552;2023-04-24T03:28:09;11.50;70.30
42965;DHT22;28604;51.204;22.552;2023-04-24T03:30:48;11.50;70.20
42965;DHT22;28604;51.204;22.552;2023-04-24T03:33:16;11.50;70.60
42965;DHT22;28604;51.204;22.552;2023-04-24T03:35:52;11.40;70.90
42965;DHT22;28604;51.204;22.552;2023-04-24T03:38:19;11.50;70.00
42965;DHT22;28604;51.204;22.552;2023-04-24T03:40:57;11.50;70.20
42965;DHT22;28604;51.204;22.552;2023-04-24T03:43:46;11.40;70.30
42965;DHT22;28604;51.204;22.552;2023-04-24T03:46:12;11.50;70.40
42965;DHT22;28604;51.204;22.552;2023-04-24T03:48:43;11.50;70.10
42965;DHT22;28604;51.204;22.552;2023-04-24T03:51:10;11.40;70.40
42965;DHT22;28604;51.204;22.552;2023-04-24T03:53:39;11.50;69.90
42965;DHT22;28604;51.204;22.552;2023-04-24T03:56:05;11.60;69.60
42965;DHT22;28604;51.204;22.552;2023-04-24T03:58:32;11.60;70.10
42965;DHT22;28604;51.204;22.552;2023-04-24T04:00:59;11.60;69.50
42965;DHT22;28604;51.204;22.552;2023-04-24T04:03:58;11.60;69.10
42965;DHT22;28604;51.204;22.552;2023-04-24T04:06:26;11.70;69.60
42965;DHT22;28604;51.204;22.552;2023-04-24T04:08:54;11.70;69.30
42965;DHT22;28604;51.204;22.552;2023-04-24T04:11:19;11.80;69.00
42965;DHT22;28604;51.204;22.552;2023-04-24T04:13:46;11.80;68.70
42965;DHT22;28604;51.204;22.552;2023-04-24T04:16:14;11.80;69.20
42965;DHT22;28604;51.204;22.552;2023-04-24T04:18:45;11.80;68.80
42965;DHT22;28604;51.204;22.552;2023-04-24T04:21:11;11.80;69.00
42965;DHT22;28604;51.204;22.552;2023-04-24T04:23:37;11.80;69.40
42965;DHT22;28604;51.204;22.552;2023-04-24T04:26:10;11.80;69.00
42965;DHT22;28604;51.204;22.552;2023-04-24T04:28:50;11.90;69.30
42965;DHT22;28604;51.204;22.552;2023-04-24T04:31:15;11.90;68.80
42965;DHT22;28604;51.204;22.552;2023-04-24T04:33:42;11.90;68.90
42965;DHT22;28604;51.204;22.552;2023-04-24T04:36:09;12.00;68.50
42965;DHT22;28604;51.204;22.552;2023-04-24T04:38:39;12.00;68.80
42965;DHT22;28604;51.204;22.552;2023-04-24T04:41:20;12.00;68.70
42965;DHT22;28604;51.204;22.552;2023-04-24T04:43:47;12.10;68.20
42965;DHT22;28604;51.204;22.552;2023-04-24T04:46:14;12.10;68.10
42965;DHT22;28604;51.204;22.552;2023-04-24T04:49:02;12.20;67.90
42965;DHT22;28604;51.204;22.552;2023-04-24T04:51:29;12.30;67.70
42965;DHT22;28604;51.204;22.552;2023-04-24T04:53:55;12.30;67.40
42965;DHT22;28604;51.204;22.552;2023-04-24T04:56:22;12.40;68.10
42965;DHT22;28604;51.204;22.552;2023-04-24T04:58:49;12.40;68.00
42965;DHT22;28604;51.204;22.552;2023-04-24T05:01:16;12.40;68.30
42965;DHT22;28604;51.204;22.552;2023-04-24T05:03:46;12.40;68.70
42965;DHT22;28604;51.204;22.552;2023-04-24T05:06:14;12.40;68.80
42965;DHT22;28604;51.204;22.552;2023-04-24T05:08:41;12.50;69.00
42965;DHT22;28604;51.204;22.552;2023-04-24T05:11:11;12.50;69.10
42965;DHT22;28604;51.204;22.552;2023-04-24T05:13:38;12.50;69.70
42965;DHT22;28604;51.204;22.552;2023-04-24T05:16:08;12.60;69.60
42965;DHT22;28604;51.204;22.552;2023-04-24T05:18:34;12.70;68.90
42965;DHT22;28604;51.204;22.552;2023-04-24T05:21:00;12.70;69.60
42965;DHT22;28604;51.204;22.552;2023-04-24T05:23:28;12.80;69.60
42965;DHT22;28604;51.204;22.552;2023-04-24T05:25:55;12.90;70.00
42965;DHT22;28604;51.204;22.552;2023-04-24T05:28:21;13.00;69.60
42965;DHT22;28604;51.204;22.552;2023-04-24T05:31:00;13.00;69.40
42965;DHT22;28604;51.204;22.552;2023-04-24T05:33:27;13.10;69.10
42965;DHT22;28604;51.204;22.552;2023-04-24T05:35:52;13.20;68.40
42965;DHT22;28604;51.204;22.552;2023-04-24T05:38:19;13.40;68.30
42965;DHT22;28604;51.204;22.552;2023-04-24T05:40:45;13.40;68.20
42965;DHT22;28604;51.204;22.552;2023-04-24T05:43:12;13.50;67.90
42965;DHT22;28604;51.204;22.552;2023-04-24T05:45:38;13.70;67.70
42965;DHT22;28604;51.204;22.552;2023-04-24T05:48:04;13.80;67.30
42965;DHT22;28604;51.204;22.552;2023-04-24T05:50:32;14.00;67.00
42965;DHT22;28604;51.204;22.552;2023-04-24T05:52:58;14.30;66.70
42965;DHT22;28604;51.204;22.552;2023-04-24T05:55:28;14.80;65.70
42965;DHT22;28604;51.204;22.552;2023-04-24T05:57:54;15.30;65.20
42965;DHT22;28604;51.204;22.552;2023-04-24T06:00:20;15.80;64.20
42965;DHT22;28604;51.204;22.552;2023-04-24T06:02:56;16.40;63.80
42965;DHT22;28604;51.204;22.552;2023-04-24T06:05:22;17.20;62.30
42965;DHT22;28604;51.204;22.552;2023-04-24T06:07:48;17.80;60.80
42965;DHT22;28604;51.204;22.552;2023-04-24T06:10:14;18.40;59.00
42965;DHT22;28604;51.204;22.552;2023-04-24T06:12:43;19.00;57.70
42965;DHT22;28604;51.204;22.552;2023-04-24T06:15:16;19.50;57.00
42965;DHT22;28604;51.204;22.552;2023-04-24T06:18:11;20.10;55.20
42965;DHT22;28604;51.204;22.552;2023-04-24T06:20:39;20.50;54.20
42965;DHT22;28604;51.204;22.552;2023-04-24T06:23:08;20.90;53.90
42965;DHT22;28604;51.204;22.552;2023-04-24T06:25:34;21.30;53.00
42965;DHT22;28604;51.204;22.552;2023-04-24T06:28:00;21.70;51.40
42965;DHT22;28604;51.204;22.552;2023-04-24T06:30:29;22.00;50.90
42965;DHT22;28604;51.204;22.552;2023-04-24T06:32:55;22.30;50.60
42965;DHT22;28604;51.204;22.552;2023-04-24T06:35:21;22.60;48.60
42965;DHT22;28604;51.204;22.552;2023-04-24T06:37:47;22.90;48.40
42965;DHT22;28604;51.204;22.552;2023-04-24T06:40:13;23.20;49.00
42965;DHT22;28604;51.204;22.552;2023-04-24T06:42:39;23.50;48.30
42965;DHT22;28604;51.204;22.552;2023-04-24T06:45:08;23.80;47.30
42965;DHT22;28604;51.204;22.552;2023-04-24T06:47:34;24.00;47.00
42965;DHT22;28604;51.204;22.552;2023-04-24T06:50:00;24.10;47.10
42965;DHT22;28604;51.204;22.552;2023-04-24T06:52:26;24.50;46.90
42965;DHT22;28604;51.204;22.552;2023-04-24T06:54:51;24.50;46.20
42965;DHT22;28604;51.204;22.552;2023-04-24T06:57:18;24.60;45.80
42965;DHT22;28604;51.204;22.552;2023-04-24T06:59:44;24.70;45.90
42965;DHT22;28604;51.204;22.552;2023-04-24T07:02:10;25.20;45.90
42965;DHT22;28604;51.204;22.552;2023-04-24T07:04:36;25.50;44.60
42965;DHT22;28604;51.204;22.552;2023-04-24T07:07:02;26.00;44.40
42965;DHT22;28604;51.204;22.552;2023-04-24T07:09:28;26.40;43.60
42965;DHT22;28604;51.204;22.552;2023-04-24T07:11:54;26.60;43.00
42965;DHT22;28604;51.204;22.552;2023-04-24T07:14:22;26.70;43.40
42965;DHT22;28604;51.204;22.552;2023-04-24T07:16:48;26.90;42.50
42965;DHT22;28604;51.204;22.552;2023-04-24T07:19:14;27.20;42.40
42965;DHT22;28604;51.204;22.552;2023-04-24T07:21:40;27.60;41.60
42965;DHT22;28604;51.204;22.552;2023-04-24T07:24:06;27.80;41.40
42965;DHT22;28604;51.204;22.552;2023-04-24T07:26:37;28.00;41.30
42965;DHT22;28604;51.204;22.552;2023-04-24T07:29:03;28.10;41.30
42965;DHT22;28604;51.204;22.552;2023-04-24T07:31:29;28.50;41.00
42965;DHT22;28604;51.204;22.552;2023-04-24T07:33:55;28.70;40.80
42965;DHT22;28604;51.204;22.552;2023-04-24T07:36:24;28.90;41.20
42965;DHT22;28604;51.204;22.552;2023-04-24T07:38:52;29.00;40.10
42965;DHT22;28604;51.204;22.552;2023-04-24T07:41:18;29.00;40.90
42965;DHT22;28604;51.204;22.552;2023-04-24T07:43:44;28.60;40.60
42965;DHT22;28604;51.204;22.552;2023-04-24T07:46:11;28.20;41.50
42965;DHT22;28604;51.204;22.552;2023-04-24T07:48:37;28.10;41.90
42965;DHT22;28604;51.204;22.552;2023-04-24T07:51:03;28.40;41.80
42965;DHT22;28604;51.204;22.552;2023-04-24T07:53:29;28.20;42.00
42965;DHT22;28604;51.204;22.552;2023-04-24T07:55:56;28.40;42.30
42965;DHT22;28604;51.204;22.552;2023-04-24T07:58:22;28.40;41.10
42965;DHT22;28604;51.204;22.552;2023-04-24T08:00:48;28.10;40.80
42965;DHT22;28604;51.204;22.552;2023-04-24T08:03:14;28.70;41.30
42965;DHT22;28604;51.204;22.552;2023-04-24T08:05:41;29.20;40.80
42965;DHT22;28604;51.204;22.552;2023-04-24T08:08:07;29.10;41.40
42965;DHT22;28604;51.204;22.552;2023-04-24T08:10:33;28.80;40.90
42965;DHT22;28604;51.204;22.552;2023-04-24T08:12:59;28.60;41.70
42965;DHT22;28604;51.204;22.552;2023-04-24T08:15:27;28.70;41.90
42965;DHT22;28604;51.204;22.552;2023-04-24T08:17:53;29.10;41.90
42965;DHT22;28604;51.204;22.552;2023-04-24T08:20:19;29.20;41.50
42965;DHT22;28604;51.204;22.552;2023-04-24T08:22:44;29.20;41.30
42965;DHT22;28604;51.204;22.552;2023-04-24T08:25:13;29.10;42.00
42965;DHT22;28604;51.204;22.552;2023-04-24T08:27:39;29.50;41.90
42965;DHT22;28604;51.204;22.552;2023-04-24T08:30:06;29.60;40.80
42965;DHT22;28604;51.204;22.552;2023-04-24T08:32:32;29.70;41.20
42965;DHT22;28604;51.204;22.552;2023-04-24T08:34:59;29.90;41.60
42965;DHT22;28604;51.204;22.552;2023-04-24T08:37:26;30.30;40.70
42965;DHT22;28604;51.204;22.552;2023-04-24T08:39:53;29.90;40.70
42965;DHT22;28604;51.204;22.552;2023-04-24T08:42:19;29.60;39.90
42965;DHT22;28604;51.204;22.552;2023-04-24T08:44:48;29.50;40.60
42965;DHT22;28604;51.204;22.552;2023-04-24T08:47:15;30.00;40.20
42965;DHT22;28604;51.204;22.552;2023-04-24T08:49:41;30.40;40.30
42965;DHT22;28604;51.204;22.552;2023-04-24T08:52:08;30.60;40.00
42965;DHT22;28604;51.204;22.552;2023-04-24T08:54:37;31.20;39.70
42965;DHT22;28604;51.204;22.552;2023-04-24T08:57:07;31.60;39.20
42965;DHT22;28604;51.204;22.552;2023-04-24T08:59:33;31.00;37.60
42965;DHT22;28604;51.204;22.552;2023-04-24T09:02:02;30.60;38.70
42965;DHT22;28604;51.204;22.552;2023-04-24T09:04:30;30.90;39.30
42965;DHT22;28604;51.204;22.552;2023-04-24T09:06:57;31.00;39.00
42965;DHT22;28604;51.204;22.552;2023-04-24T09:09:24;30.80;37.90
42965;DHT22;28604;51.204;22.552;2023-04-24T09:11:51;30.70;38.60
42965;DHT22;28604;51.204;22.552;2023-04-24T09:14:19;31.00;39.10
42965;DHT22;28604;51.204;22.552;2023-04-24T09:16:46;31.00;39.40
42965;DHT22;28604;51.204;22.552;2023-04-24T09:19:12;30.70;37.80
42965;DHT22;28604;51.204;22.552;2023-04-24T09:21:38;30.90;38.90
42965;DHT22;28604;51.204;22.552;2023-04-24T09:24:08;31.50;38.20
42965;DHT22;28604;51.204;22.552;2023-04-24T09:26:39;31.90;37.50
42965;DHT22;28604;51.204;22.552;2023-04-24T09:29:06;32.10;37.40
42965;DHT22;28604;51.204;22.552;2023-04-24T09:31:31;32.00;37.50
42965;DHT22;28604;51.204;22.552;2023-04-24T09:34:00;31.60;38.00
42965;DHT22;28604;51.204;22.552;2023-04-24T09:36:40;31.70;37.80
42965;DHT22;28604;51.204;22.552;2023-04-24T09:39:09;31.60;38.50
42965;DHT22;28604;51.204;22.552;2023-04-24T09:41:56;31.60;38.30
42965;DHT22;28604;51.204;22.552;2023-04-24T09:44:27;31.50;37.30
42965;DHT22;28604;51.204;22.552;2023-04-24T09:47:00;31.10;37.60
42965;DHT22;28604;51.204;22.552;2023-04-24T09:49:28;31.00;37.70
42965;DHT22;28604;51.204;22.552;2023-04-24T09:52:10;30.70;37.90
42965;DHT22;28604;51.204;22.552;2023-04-24T09:54:37;30.80;37.50
42965;DHT22;28604;51.204;22.552;2023-04-24T09:57:04;30.60;38.20
42965;DHT22;28604;51.204;22.552;2023-04-24T09:59:30;30.90;38.60
42965;DHT22;28604;51.204;22.552;2023-04-24T10:01:56;30.70;38.10
42965;DHT22;28604;51.204;22.552;2023-04-24T10:04:27;30.50;37.60
42965;DHT22;28604;51.204;22.552;2023-04-24T10:06:55;30.40;37.00
42965;DHT22;28604;51.204;22.552;2023-04-24T10:09:23;30.50;37.50
42965;DHT22;28604;51.204;22.552;2023-04-24T10:11:51;29.80;38.40
42965;DHT22;28604;51.204;22.552;2023-04-24T10:14:22;30.00;39.00
42965;DHT22;28604;51.204;22.552;2023-04-24T10:16:48;29.80;38.80
42965;DHT22;28604;51.204;22.552;2023-04-24T10:19:15;30.20;38.20
42965;DHT22;28604;51.204;22.552;2023-04-24T10:21:43;30.70;37.90
42965;DHT22;28604;51.204;22.552;2023-04-24T10:24:16;30.80;38.30
42965;DHT22;28604;51.204;22.552;2023-04-24T10:26:43;30.20;37.70
42965;DHT22;28604;51.204;22.552;2023-04-24T10:29:14;30.10;37.90
42965;DHT22;28604;51.204;22.552;2023-04-24T10:31:41;29.40;38.40
42965;DHT22;28604;51.204;22.552;2023-04-24T10:34:09;29.30;38.30
42965;DHT22;28604;51.204;22.552;2023-04-24T10:36:38;28.90;38.60
42965;DHT22;28604;51.204;22.552;2023-04-24T10:39:08;29.20;38.30
42965;DHT22;28604;51.204;22.552;2023-04-24T10:41:37;29.20;39.20
42965;DHT22;28604;51.204;22.552;2023-04-24T10:44:16;28.80;38.50
42965;DHT22;28604;51.204;22.552;2023-04-24T10:46:45;28.90;39.70
42965;DHT22;28604;51.204;22.552;2023-04-24T10:49:11;29.30;38.30
42965;DHT22;28604;51.204;22.552;2023-04-24T10:51:51;29.60;38.10
42965;DHT22;28604;51.204;22.552;2023-04-24T10:54:35;29.10;38.00
42965;DHT22;28604;51.204;22.552;2023-04-24T10:59:50;29.20;37.90
42965;DHT22;28604;51.204;22.552;2023-04-24T11:02:18;29.30;37.00
42965;DHT22;28604;51.204;22.552;2023-04-24T11:04:44;28.90;37.10
42965;DHT22;28604;51.204;22.552;2023-04-24T11:07:13;29.00;38.00
42965;DHT22;28604;51.204;22.552;2023-04-24T11:09:41;29.20;37.20
42965;DHT22;28604;51.204;22.552;2023-04-24T11:12:10;29.50;36.90
42965;DHT22;28604;51.204;22.552;2023-04-24T11:20:15;27.20;37.80
42965;DHT22;28604;51.204;22.552;2023-04-24T11:22:42;27.00;38.20
42965;DHT22;28604;51.204;22.552;2023-04-24T11:25:09;26.90;38.40
42965;DHT22;28604;51.204;22.552;2023-04-24T11:27:44;26.80;38.80
42965;DHT22;28604;51.204;22.552;2023-04-24T11:30:12;26.60;38.80
42965;DHT22;28604;51.204;22.552;2023-04-24T11:32:43;26.40;38.90
42965;DHT22;28604;51.204;22.552;2023-04-24T11:35:17;26.30;38.90
42965;DHT22;28604;51.204;22.552;2023-04-24T11:37:46;26.20;39.30
42965;DHT22;28604;51.204;22.552;2023-04-24T11:40:14;26.10;39.50
42965;DHT22;28604;51.204;22.552;2023-04-24T11:42:44;26.00;39.30
42965;DHT22;28604;51.204;22.552;2023-04-24T11:45:12;26.00;39.80
42965;DHT22;28604;51.204;22.552;2023-04-24T11:47:39;25.90;39.30
42965;DHT22;28604;51.204;22.552;2023-04-24T11:50:07;25.80;39.70
42965;DHT22;28604;51.204;22.552;2023-04-24T11:52:37;25.70;39.70
42965;DHT22;28604;51.204;22.552;2023-04-24T11:55:04;25.60;39.80
42965;DHT22;28604;51.204;22.552;2023-04-24T11:57:30;25.70;38.90
42965;DHT22;28604;51.204;22.552;2023-04-24T12:00:01;25.90;39.00
42965;DHT22;28604;51.204;22.552;2023-04-24T12:02:37;26.00;38.70
42965;DHT22;28604;51.204;22.552;2023-04-24T12:05:04;26.10;38.10
42965;DHT22;28604;51.204;22.552;2023-04-24T12:07:40;26.00;37.60
42965;DHT22;28604;51.204;22.552;2023-04-24T12:10:08;26.00;39.30
42965;DHT22;28604;51.204;22.552;2023-04-24T12:12:34;25.80;38.60
42965;DHT22;28604;51.204;22.552;2023-04-24T12:15:01;25.80;38.70
42965;DHT22;28604;51.204;22.552;2023-04-24T12:17:29;25.80;38.30
42965;DHT22;28604;51.204;22.552;2023-04-24T12:20:02;25.80;39.10
42965;DHT22;28604;51.204;22.552;2023-04-24T12:22:48;25.90;39.20
42965;DHT22;28604;51.204;22.552;2023-04-24T12:25:18;25.90;38.70
42965;DHT22;28604;51.204;22.552;2023-04-24T12:27:45;25.90;39.90
42965;DHT22;28604;51.204;22.552;2023-04-24T12:30:16;25.70;38.20
42965;DHT22;28604;51.204;22.552;2023-04-24T12:32:46;25.60;39.00
42965;DHT22;28604;51.204;22.552;2023-04-24T12:35:13;25.40;38.20
42965;DHT22;28604;51.204;22.552;2023-04-24T12:37:42;25.50;38.40
42965;DHT22;28604;51.204;22.552;2023-04-24T12:40:10;25.60;37.90
42965;DHT22;28604;51.204;22.552;2023-04-24T12:42:42;25.70;38.10
42965;DHT22;28604;51.204;22.552;2023-04-24T12:45:09;25.60;39.30
42965;DHT22;28604;51.204;22.552;2023-04-24T12:47:35;25.60;39.20
42965;DHT22;28604;51.204;22.552;2023-04-24T12:50:02;25.60;39.50
42965;DHT22;28604;51.204;22.552;2023-04-24T12:52:29;25.50;38.40
42965;DHT22;28604;51.204;22.552;2023-04-24T12:54:58;25.30;38.70
42965;DHT22;28604;51.204;22.552;2023-04-24T12:57:24;25.50;38.80
42965;DHT22;28604;51.204;22.552;2023-04-24T12:59:53;25.60;38.40
42965;DHT22;28604;51.204;22.552;2023-04-24T13:02:19;25.60;39.00
42965;DHT22;28604;51.204;22.552;2023-04-24T13:04:47;25.50;38.00
42965;DHT22;28604;51.204;22.552;2023-04-24T13:07:16;25.20;37.40
42965;DHT22;28604;51.204;22.552;2023-04-24T13:09:43;25.10;38.00
42965;DHT22;28604;51.204;22.552;2023-04-24T13:12:11;25.00;37.80
42965;DHT22;28604;51.204;22.552;2023-04-24T13:14:37;25.00;37.80
42965;DHT22;28604;51.204;22.552;2023-04-24T13:17:04;24.90;38.50
42965;DHT22;28604;51.204;22.552;2023-04-24T13:19:36;25.10;38.20
42965;DHT22;28604;51.204;22.552;2023-04-24T13:22:02;25.20;37.80
42965;DHT22;28604;51.204;22.552;2023-04-24T13:24:28;25.30;38.00
42965;DHT22;28604;51.204;22.552;2023-04-24T13:26:55;25.40;38.40
42965;DHT22;28604;51.204;22.552;2023-04-24T13:29:22;25.50;39.20
42965;DHT22;28604;51.204;22.552;2023-04-24T13:31:50;25.70;38.50
42965;DHT22;28604;51.204;22.552;2023-04-24T13:34:17;25.90;38.30
42965;DHT22;28604;51.204;22.552;2023-04-24T13:36:43;26.20;38.90
42965;DHT22;28604;51.204;22.552;2023-04-24T13:39:10;26.10;39.10
42965;DHT22;28604;51.204;22.552;2023-04-24T13:41:36;26.00;38.20
42965;DHT22;28604;51.204;22.552;2023-04-24T13:44:03;25.80;38.90
42965;DHT22;28604;51.204;22.552;2023-04-24T13:46:29;25.80;39.10
42965;DHT22;28604;51.204;22.552;2023-04-24T13:48:56;25.80;39.40
42965;DHT22;28604;51.204;22.552;2023-04-24T13:51:23;25.90;40.00
42965;DHT22;28604;51.204;22.552;2023-04-24T13:53:49;25.80;40.10
42965;DHT22;28604;51.204;22.552;2023-04-24T13:56:15;25.50;40.60
42965;DHT22;28604;51.204;22.552;2023-04-24T13:58:41;25.10;41.40
42965;DHT22;28604;51.204;22.552;2023-04-24T14:01:07;25.10;41.10
42965;DHT22;28604;51.204;22.552;2023-04-24T14:03:33;25.10;41.50
42965;DHT22;28604;51.204;22.552;2023-04-24T14:05:59;24.60;41.70
42965;DHT22;28604;51.204;22.552;2023-04-24T14:08:25;24.40;42.60
42965;DHT22;28604;51.204;22.552;2023-04-24T14:10:51;24.30;42.60
42965;DHT22;28604;51.204;22.552;2023-04-24T14:13:17;24.40;43.10
42965;DHT22;28604;51.204;22.552;2023-04-24T14:15:43;24.50;43.30
42965;DHT22;28604;51.204;22.552;2023-04-24T14:18:09;24.70;43.20
42965;DHT22;28604;51.204;22.552;2023-04-24T14:20:35;24.70;42.60
42965;DHT22;28604;51.204;22.552;2023-04-24T14:23:01;24.70;41.40
42965;DHT22;28604;51.204;22.552;2023-04-24T14:25:27;24.70;40.40
42965;DHT22;28604;51.204;22.552;2023-04-24T14:27:53;24.70;40.60
42965;DHT22;28604;51.204;22.552;2023-04-24T14:30:19;24.80;41.40
42965;DHT22;28604;51.204;22.552;2023-04-24T14:32:46;24.80;41.40
42965;DHT22;28604;51.204;22.552;2023-04-24T14:35:11;24.70;41.20
42965;DHT22;28604;51.204;22.552;2023-04-24T14:37:37;24.30;41.60
42965;DHT22;28604;51.204;22.552;2023-04-24T14:40:07;24.00;42.30
42965;DHT22;28604;51.204;22.552;2023-04-24T14:42:34;23.80;42.30
42965;DHT22;28604;51.204;22.552;2023-04-24T14:45:00;23.80;43.20
42965;DHT22;28604;51.204;22.552;2023-04-24T14:47:27;23.70;42.90
42965;DHT22;28604;51.204;22.552;2023-04-24T14:49:53;23.60;42.90
42965;DHT22;28604;51.204;22.552;2023-04-24T14:52:19;23.70;43.00
42965;DHT22;28604;51.204;22.552;2023-04-24T14:54:45;23.80;42.60
42965;DHT22;28604;51.204;22.552;2023-04-24T14:57:11;23.80;43.20
42965;DHT22;28604;51.204;22.552;2023-04-24T14:59:37;23.60;43.40
42965;DHT22;28604;51.204;22.552;2023-04-24T15:02:03;23.40;43.50
42965;DHT22;28604;51.204;22.552;2023-04-24T15:04:29;23.30;42.80
42965;DHT22;28604;51.204;22.552;2023-04-24T15:06:56;23.10;43.40
42965;DHT22;28604;51.204;22.552;2023-04-24T15:09:24;23.00;43.50
42965;DHT22;28604;51.204;22.552;2023-04-24T15:11:51;22.90;43.60
42965;DHT22;28604;51.204;22.552;2023-04-24T15:14:17;22.80;44.50
42965;DHT22;28604;51.204;22.552;2023-04-24T15:16:44;22.80;45.00
42965;DHT22;28604;51.204;22.552;2023-04-24T15:19:10;22.80;44.80
42965;DHT22;28604;51.204;22.552;2023-04-24T15:21:36;22.80;44.70
42965;DHT22;28604;51.204;22.552;2023-04-24T15:24:04;22.80;44.70
42965;DHT22;28604;51.204;22.552;2023-04-24T15:26:30;22.70;45.00
42965;DHT22;28604;51.204;22.552;2023-04-24T15:28:56;22.70;44.30
42965;DHT22;28604;51.204;22.552;2023-04-24T15:31:22;22.70;43.80
42965;DHT22;28604;51.204;22.552;2023-04-24T15:33:49;22.50;44.00
42965;DHT22;28604;51.204;22.552;2023-04-24T15:36:16;22.40;44.70